sensor_id;sensor_type;location;lat;lon;timestamp;temperature;humidity
43414;DHT22;29013;49.676;8.606;2023-02-14T00:02:52;2.9;99.9
43414;DHT22;29013;49.676;8.606;2023-02-14T00:08:16;2.6;99.9
43414;DHT22;29013;49.676;8.606;2023-02-14T00:13:38;2.5;99.9
43414;DHT22;29013;49.676;8.606;2023-02-14T00:18:57;2.4;99.9
43414;DHT22;29013;49.676;8.606;2023-02-14T00:24:19;2.3;99.9
43414;DHT22;29013;49.676;8.606;2023-02-14T00:29:40;2.3;99.9
43414;DHT22;29013;49.676;8.606;2023-02-14T00:35:07;2.4;99.9
43414;DHT22;29013;49.676;8.606;2023-02-14T00:40:27;2.5;99.9
43414;DHT22;29013;49.676;8.606;2023-02-14T00:46:32;2.5;99.9
43414;DHT22;29013;49.676;8.606;2023-02-14T00:51:55;2.8;99.9
43414;DHT22;29013;49.676;8.606;2023-02-14T00:57:17;2.7;99.9
43414;DHT22;29013;49.676;8.606;2023-02-14T01:02:40;2.6;99.9
43414;DHT22;29013;49.676;8.606;2023-02-14T01:08:02;2.4;99.9
43414;DHT22;29013;49.676;8.606;2023-02-14T01:13:28;2.2;99.9
43414;DHT22;29013;49.676;8.606;2023-02-14T01:18:45;2.2;99.9
43414;DHT22;29013;49.676;8.606;2023-02-14T01:24:05;2.0;99.9
43414;DHT22;29013;49.676;8.606;2023-02-14T01:29:53;1.8;99.9
43414;DHT22;29013;49.676;8.606;2023-02-14T01:35:17;2.0;99.9
43414;DHT22;29013;49.676;8.606;2023-02-14T01:41:00;1.8;99.9
43414;DHT22;29013;49.676;8.606;2023-02-14T01:46:23;1.8;99.9
43414;DHT22;29013;49.676;8.606;2023-02-14T01:52:04;1.7;99.9
43414;DHT22;29013;49.676;8.606;2023-02-14T01:57:22;1.9;99.9
43414;DHT22;29013;49.676;8.606;2023-02-14T02:02:45;2.0;99.9
43414;DHT22;29013;49.676;8.606;2023-02-14T02:08:09;2.0;99.9
43414;DHT22;29013;49.676;8.606;2023-02-14T02:13:34;2.1;99.9
43414;DHT22;29013;49.676;8.606;2023-02-14T02:19:06;2.0;99.9
43414;DHT22;29013;49.676;8.606;2023-02-14T02:24:25;2.0;99.9
43414;DHT22;29013;49.676;8.606;2023-02-14T02:36:02;1.9;99.9
43414;DHT22;29013;49.676;8.606;2023-02-14T02:41:29;1.8;99.9
43414;DHT22;29013;49.676;8.606;2023-02-14T02:46:54;1.6;99.9
43414;DHT22;29013;49.676;8.606;2023-02-14T02:52:18;1.4;99.9
43414;DHT22;29013;49.676;8.606;2023-02-14T02:57:40;1.4;99.9
43414;DHT22;29013;49.676;8.606;2023-02-14T03:03:07;1.4;99.9
43414;DHT22;29013;49.676;8.606;2023-02-14T03:08:30;1.5;99.9
43414;DHT22;29013;49.676;8.606;2023-02-14T03:14:09;1.5;99.9
43414;DHT22;29013;49.676;8.606;2023-02-14T03:19:42;1.6;99.9
43414;DHT22;29013;49.676;8.606;2023-02-14T03:25:01;1.7;99.9
43414;DHT22;29013;49.676;8.606;2023-02-14T03:30:25;1.6;99.9
43414;DHT22;29013;49.676;8.606;2023-02-14T03:35:47;1.5;99.9
43414;DHT22;29013;49.676;8.606;2023-02-14T03:41:11;1.3;99.9
43414;DHT22;29013;49.676;8.606;2023-02-14T03:46:34;1.2;99.9
43414;DHT22;29013;49.676;8.606;2023-02-14T03:51:57;1.1;99.9
43414;DHT22;29013;49.676;8.606;2023-02-14T03:57:16;1.0;99.9
43414;DHT22;29013;49.676;8.606;2023-02-14T04:02:40;0.9;99.9
43414;DHT22;29013;49.676;8.606;2023-02-14T04:08:03;1.0;99.9
43414;DHT22;29013;49.676;8.606;2023-02-14T04:13:27;1.0;99.9
43414;DHT22;29013;49.676;8.606;2023-02-14T04:18:50;0.8;99.9
43414;DHT22;29013;49.676;8.606;2023-02-14T04:24:13;0.8;99.9
43414;DHT22;29013;49.676;8.606;2023-02-14T04:29:35;0.8;99.9
43414;DHT22;29013;49.676;8.606;2023-02-14T04:34:54;1.0;99.9
43414;DHT22;29013;49.676;8.606;2023-02-14T04:40:17;1.1;99.9
43414;DHT22;29013;49.676;8.606;2023-02-14T04:45:35;1.1;99.9
43414;DHT22;29013;49.676;8.606;2023-02-14T04:50:59;1.0;99.9
43414;DHT22;29013;49.676;8.606;2023-02-14T04:56:45;0.9;99.9
43414;DHT22;29013;49.676;8.606;2023-02-14T05:02:07;1.1;99.9
43414;DHT22;29013;49.676;8.606;2023-02-14T05:07:30;1.0;99.9
43414;DHT22;29013;49.676;8.606;2023-02-14T05:13:38;1.2;99.9
43414;DHT22;29013;49.676;8.606;2023-02-14T05:19:00;1.7;99.9
43414;DHT22;29013;49.676;8.606;2023-02-14T05:24:23;1.8;99.9
43414;DHT22;29013;49.676;8.606;2023-02-14T05:29:47;2.0;99.9
43414;DHT22;29013;49.676;8.606;2023-02-14T05:35:11;2.2;99.9
43414;DHT22;29013;49.676;8.606;2023-02-14T05:40:42;2.3;99.9
43414;DHT22;29013;49.676;8.606;2023-02-14T05:46:04;2.5;99.9
43414;DHT22;29013;49.676;8.606;2023-02-14T05:51:28;2.6;99.9
43414;DHT22;29013;49.676;8.606;2023-02-14T05:56:51;2.5;99.9
43414;DHT22;29013;49.676;8.606;2023-02-14T06:02:13;2.4;99.9
43414;DHT22;29013;49.676;8.606;2023-02-14T06:07:37;2.3;99.9
43414;DHT22;29013;49.676;8.606;2023-02-14T06:12:59;2.3;99.9
43414;DHT22;29013;49.676;8.606;2023-02-14T06:18:41;2.2;99.9
43414;DHT22;29013;49.676;8.606;2023-02-14T06:24:01;2.2;99.9
43414;DHT22;29013;49.676;8.606;2023-02-14T06:29:25;2.2;99.9
43414;DHT22;29013;49.676;8.606;2023-02-14T06:34:45;2.1;99.9
43414;DHT22;29013;49.676;8.606;2023-02-14T06:40:13;2.0;99.9
43414;DHT22;29013;49.676;8.606;2023-02-14T06:45:49;1.9;99.9
43414;DHT22;29013;49.676;8.606;2023-02-14T06:51:32;1.8;99.9
43414;DHT22;29013;49.676;8.606;2023-02-14T06:56:55;2.0;99.9
43414;DHT22;29013;49.676;8.606;2023-02-14T07:02:12;2.2;99.9
43414;DHT22;29013;49.676;8.606;2023-02-14T07:07:34;2.1;99.9
43414;DHT22;29013;49.676;8.606;2023-02-14T07:12:58;2.1;99.9
43414;DHT22;29013;49.676;8.606;2023-02-14T07:18:22;2.1;99.9
43414;DHT22;29013;49.676;8.606;2023-02-14T07:23:45;2.1;99.9
43414;DHT22;29013;49.676;8.606;2023-02-14T07:29:07;2.1;99.9
43414;DHT22;29013;49.676;8.606;2023-02-14T07:34:32;2.1;99.9
43414;DHT22;29013;49.676;8.606;2023-02-14T07:39:54;2.2;99.9
43414;DHT22;29013;49.676;8.606;2023-02-14T07:45:19;2.3;99.9
43414;DHT22;29013;49.676;8.606;2023-02-14T07:50:37;2.4;99.9
43414;DHT22;29013;49.676;8.606;2023-02-14T07:55:58;2.4;99.9
43414;DHT22;29013;49.676;8.606;2023-02-14T08:01:26;2.5;99.9
43414;DHT22;29013;49.676;8.606;2023-02-14T08:06:49;2.6;99.9
43414;DHT22;29013;49.676;8.606;2023-02-14T08:12:13;2.6;99.9
43414;DHT22;29013;49.676;8.606;2023-02-14T08:17:35;3.0;99.9
43414;DHT22;29013;49.676;8.606;2023-02-14T08:23:03;3.1;99.9
43414;DHT22;29013;49.676;8.606;2023-02-14T08:28:29;3.3;99.9
43414;DHT22;29013;49.676;8.606;2023-02-14T08:33:51;3.4;99.9
43414;DHT22;29013;49.676;8.606;2023-02-14T08:39:15;3.5;99.9
43414;DHT22;29013;49.676;8.606;2023-02-14T08:44:58;3.5;99.9
43414;DHT22;29013;49.676;8.606;2023-02-14T08:50:22;3.7;99.9
43414;DHT22;29013;49.676;8.606;2023-02-14T08:55:40;3.8;99.9
43414;DHT22;29013;49.676;8.606;2023-02-14T09:01:01;3.8;99.9
43414;DHT22;29013;49.676;8.606;2023-02-14T09:06:23;3.6;99.9
43414;DHT22;29013;49.676;8.606;2023-02-14T09:11:41;3.5;99.9
43414;DHT22;29013;49.676;8.606;2023-02-14T09:17:06;3.6;99.9
43414;DHT22;29013;49.676;8.606;2023-02-14T09:22:30;3.7;99.9
43414;DHT22;29013;49.676;8.606;2023-02-14T09:27:54;3.7;99.9
43414;DHT22;29013;49.676;8.606;2023-02-14T09:33:43;3.6;99.9
43414;DHT22;29013;49.676;8.606;2023-02-14T09:39:06;3.9;99.9
43414;DHT22;29013;49.676;8.606;2023-02-14T09:44:32;4.0;99.9
43414;DHT22;29013;49.676;8.606;2023-02-14T09:49:56;4.1;99.9
43414;DHT22;29013;49.676;8.606;2023-02-14T09:55:15;4.2;99.9
43414;DHT22;29013;49.676;8.606;2023-02-14T10:00:38;4.4;99.9
43414;DHT22;29013;49.676;8.606;2023-02-14T10:05:58;4.4;99.9
43414;DHT22;29013;49.676;8.606;2023-02-14T10:11:19;4.5;99.9
43414;DHT22;29013;49.676;8.606;2023-02-14T10:16:52;4.3;99.9
43414;DHT22;29013;49.676;8.606;2023-02-14T10:22:13;4.3;99.9
43414;DHT22;29013;49.676;8.606;2023-02-14T10:27:37;4.3;99.9
43414;DHT22;29013;49.676;8.606;2023-02-14T10:33:00;4.3;99.9
43414;DHT22;29013;49.676;8.606;2023-02-14T10:38:27;4.3;99.9
43414;DHT22;29013;49.676;8.606;2023-02-14T10:44:35;4.3;99.9
43414;DHT22;29013;49.676;8.606;2023-02-14T10:49:55;4.6;99.9
43414;DHT22;29013;49.676;8.606;2023-02-14T10:55:38;4.5;99.9
43414;DHT22;29013;49.676;8.606;2023-02-14T11:00:59;4.7;99.9
43414;DHT22;29013;49.676;8.606;2023-02-14T11:06:19;4.7;99.9
43414;DHT22;29013;49.676;8.606;2023-02-14T11:11:46;4.8;99.9
43414;DHT22;29013;49.676;8.606;2023-02-14T11:17:30;4.8;99.9
43414;DHT22;29013;49.676;8.606;2023-02-14T11:22:53;4.9;99.9
43414;DHT22;29013;49.676;8.606;2023-02-14T11:28:15;4.9;99.9
43414;DHT22;29013;49.676;8.606;2023-02-14T11:33:38;4.9;99.9
43414;DHT22;29013;49.676;8.606;2023-02-14T11:39:04;5.1;99.9
43414;DHT22;29013;49.676;8.606;2023-02-14T11:44:23;5.3;99.9
43414;DHT22;29013;49.676;8.606;2023-02-14T11:49:57;5.4;99.9
43414;DHT22;29013;49.676;8.606;2023-02-14T11:55:25;5.5;99.9
43414;DHT22;29013;49.676;8.606;2023-02-14T12:00:50;5.5;99.9
43414;DHT22;29013;49.676;8.606;2023-02-14T12:06:10;5.5;99.9
43414;DHT22;29013;49.676;8.606;2023-02-14T12:11:34;5.3;99.9
43414;DHT22;29013;49.676;8.606;2023-02-14T12:17:02;5.3;99.9
43414;DHT22;29013;49.676;8.606;2023-02-14T12:22:26;5.4;99.9
43414;DHT22;29013;49.676;8.606;2023-02-14T12:27:51;5.6;99.9
43414;DHT22;29013;49.676;8.606;2023-02-14T12:33:36;5.6;99.9
43414;DHT22;29013;49.676;8.606;2023-02-14T12:39:04;5.9;99.9
43414;DHT22;29013;49.676;8.606;2023-02-14T12:44:22;5.9;99.9
43414;DHT22;29013;49.676;8.606;2023-02-14T12:50:33;5.7;99.9
43414;DHT22;29013;49.676;8.606;2023-02-14T12:55:58;5.8;99.9
43414;DHT22;29013;49.676;8.606;2023-02-14T13:01:34;5.7;99.9
43414;DHT22;29013;49.676;8.606;2023-02-14T13:06:58;5.6;99.9
43414;DHT22;29013;49.676;8.606;2023-02-14T13:12:22;5.5;99.9
43414;DHT22;29013;49.676;8.606;2023-02-14T13:17:45;5.5;99.9
43414;DHT22;29013;49.676;8.606;2023-02-14T13:23:11;5.4;99.9
43414;DHT22;29013;49.676;8.606;2023-02-14T13:28:32;5.3;99.9
43414;DHT22;29013;49.676;8.606;2023-02-14T13:33:56;5.3;99.9
43414;DHT22;29013;49.676;8.606;2023-02-14T13:39:23;5.4;99.9
43414;DHT22;29013;49.676;8.606;2023-02-14T13:45:10;5.4;99.9
43414;DHT22;29013;49.676;8.606;2023-02-14T13:50:33;5.6;99.9
43414;DHT22;29013;49.676;8.606;2023-02-14T13:55:56;5.6;99.9
43414;DHT22;29013;49.676;8.606;2023-02-14T14:01:33;5.6;99.9
43414;DHT22;29013;49.676;8.606;2023-02-14T14:07:22;5.6;99.9
43414;DHT22;29013;49.676;8.606;2023-02-14T14:12:45;5.7;99.9
43414;DHT22;29013;49.676;8.606;2023-02-14T14:18:36;5.6;99.9
43414;DHT22;29013;49.676;8.606;2023-02-14T14:24:16;5.6;99.9
43414;DHT22;29013;49.676;8.606;2023-02-14T14:29:42;5.4;99.9
43414;DHT22;29013;49.676;8.606;2023-02-14T14:35:05;5.3;99.9
43414;DHT22;29013;49.676;8.606;2023-02-14T14:40:26;5.3;99.9
43414;DHT22;29013;49.676;8.606;2023-02-14T14:45:49;5.2;99.9
43414;DHT22;29013;49.676;8.606;2023-02-14T14:51:21;5.1;99.9
43414;DHT22;29013;49.676;8.606;2023-02-14T14:56:45;5.2;99.9
43414;DHT22;29013;49.676;8.606;2023-02-14T15:02:25;5.3;99.9
43414;DHT22;29013;49.676;8.606;2023-02-14T15:07:48;5.5;99.9
43414;DHT22;29013;49.676;8.606;2023-02-14T15:13:13;5.5;99.9
43414;DHT22;29013;49.676;8.606;2023-02-14T15:18:36;5.4;99.9
43414;DHT22;29013;49.676;8.606;2023-02-14T15:24:01;5.5;99.9
43414;DHT22;29013;49.676;8.606;2023-02-14T15:29:25;5.5;99.9
43414;DHT22;29013;49.676;8.606;2023-02-14T15:34:43;5.6;99.9
43414;DHT22;29013;49.676;8.606;2023-02-14T15:40:15;5.4;99.9
43414;DHT22;29013;49.676;8.606;2023-02-14T15:45:32;5.3;99.9
43414;DHT22;29013;49.676;8.606;2023-02-14T15:50:51;5.2;99.9
43414;DHT22;29013;49.676;8.606;2023-02-14T15:56:17;5.2;99.9
43414;DHT22;29013;49.676;8.606;2023-02-14T16:01:33;5.0;99.9
43414;DHT22;29013;49.676;8.606;2023-02-14T16:12:57;5.0;99.9
43414;DHT22;29013;49.676;8.606;2023-02-14T16:18:31;5.0;99.9
43414;DHT22;29013;49.676;8.606;2023-02-14T16:23:46;4.8;99.9
43414;DHT22;29013;49.676;8.606;2023-02-14T16:29:08;4.8;99.9
43414;DHT22;29013;49.676;8.606;2023-02-14T16:34:27;4.7;99.9
43414;DHT22;29013;49.676;8.606;2023-02-14T16:39:50;4.6;99.9
43414;DHT22;29013;49.676;8.606;2023-02-14T16:45:18;4.7;99.9
43414;DHT22;29013;49.676;8.606;2023-02-14T16:51:08;4.8;99.9
43414;DHT22;29013;49.676;8.606;2023-02-14T16:56:34;5.0;99.9
43414;DHT22;29013;49.676;8.606;2023-02-14T17:01:55;5.0;99.9
43414;DHT22;29013;49.676;8.606;2023-02-14T17:07:19;5.0;99.9
43414;DHT22;29013;49.676;8.606;2023-02-14T17:12:44;5.0;99.9
43414;DHT22;29013;49.676;8.606;2023-02-14T17:18:28;5.0;99.9
43414;DHT22;29013;49.676;8.606;2023-02-14T17:23:51;5.2;99.9
43414;DHT22;29013;49.676;8.606;2023-02-14T17:29:09;5.2;99.9
43414;DHT22;29013;49.676;8.606;2023-02-14T17:34:33;5.2;99.9
43414;DHT22;29013;49.676;8.606;2023-02-14T17:39:58;5.1;99.9
43414;DHT22;29013;49.676;8.606;2023-02-14T17:45:21;4.9;99.9
43414;DHT22;29013;49.676;8.606;2023-02-14T17:51:35;4.7;99.9
43414;DHT22;29013;49.676;8.606;2023-02-14T17:56:50;5.1;99.9
43414;DHT22;29013;49.676;8.606;2023-02-14T18:02:13;5.0;99.9
43414;DHT22;29013;49.676;8.606;2023-02-14T18:07:37;4.9;99.9
43414;DHT22;29013;49.676;8.606;2023-02-14T18:13:17;4.9;99.9
43414;DHT22;29013;49.676;8.606;2023-02-14T18:18:41;5.0;99.9
43414;DHT22;29013;49.676;8.606;2023-02-14T18:24:02;4.8;99.9
43414;DHT22;29013;49.676;8.606;2023-02-14T18:29:47;4.6;99.9
43414;DHT22;29013;49.676;8.606;2023-02-14T18:35:10;4.8;99.9
43414;DHT22;29013;49.676;8.606;2023-02-14T18:40:34;4.8;99.9
43414;DHT22;29013;49.676;8.606;2023-02-14T18:46:02;4.8;99.9
43414;DHT22;29013;49.676;8.606;2023-02-14T18:51:25;4.9;99.9
43414;DHT22;29013;49.676;8.606;2023-02-14T18:56:43;4.9;99.9
43414;DHT22;29013;49.676;8.606;2023-02-14T19:02:08;4.9;99.9
43414;DHT22;29013;49.676;8.606;2023-02-14T19:07:31;4.9;99.9
43414;DHT22;29013;49.676;8.606;2023-02-14T19:12:49;4.8;99.9
43414;DHT22;29013;49.676;8.606;2023-02-14T19:18:07;4.6;99.9
43414;DHT22;29013;49.676;8.606;2023-02-14T19:23:30;4.5;99.9
43414;DHT22;29013;49.676;8.606;2023-02-14T19:28:54;4.5;99.9
43414;DHT22;29013;49.676;8.606;2023-02-14T19:34:18;4.6;99.9
43414;DHT22;29013;49.676;8.606;2023-02-14T19:39:36;4.6;99.9
43414;DHT22;29013;49.676;8.606;2023-02-14T19:45:01;4.7;99.9
43414;DHT22;29013;49.676;8.606;2023-02-14T19:50:24;4.6;99.9
43414;DHT22;29013;49.676;8.606;2023-02-14T19:56:08;4.6;99.9
43414;DHT22;29013;49.676;8.606;2023-02-14T20:01:33;4.6;99.9
43414;DHT22;29013;49.676;8.606;2023-02-14T20:06:55;4.6;99.9
43414;DHT22;29013;49.676;8.606;2023-02-14T20:12:34;4.4;99.9
43414;DHT22;29013;49.676;8.606;2023-02-14T20:18:13;4.5;99.9
43414;DHT22;29013;49.676;8.606;2023-02-14T20:23:35;4.7;99.9
43414;DHT22;29013;49.676;8.606;2023-02-14T20:29:01;4.6;99.9
43414;DHT22;29013;49.676;8.606;2023-02-14T20:34:23;4.3;99.9
43414;DHT22;29013;49.676;8.606;2023-02-14T20:39:48;4.3;99.9
43414;DHT22;29013;49.676;8.606;2023-02-14T20:45:11;4.3;99.9
43414;DHT22;29013;49.676;8.606;2023-02-14T20:50:48;4.1;99.9
43414;DHT22;29013;49.676;8.606;2023-02-14T20:56:11;4.2;99.9
43414;DHT22;29013;49.676;8.606;2023-02-14T21:01:34;4.2;99.9
43414;DHT22;29013;49.676;8.606;2023-02-14T21:06:58;4.1;99.9
43414;DHT22;29013;49.676;8.606;2023-02-14T21:12:20;4.1;99.9
43414;DHT22;29013;49.676;8.606;2023-02-14T21:17:38;4.2;99.9
43414;DHT22;29013;49.676;8.606;2023-02-14T21:23:01;4.2;99.9
43414;DHT22;29013;49.676;8.606;2023-02-14T21:28:25;4.0;99.9
43414;DHT22;29013;49.676;8.606;2023-02-14T21:33:52;4.0;99.9
43414;DHT22;29013;49.676;8.606;2023-02-14T21:39:14;4.0;99.9
43414;DHT22;29013;49.676;8.606;2023-02-14T21:44:37;4.0;99.9
43414;DHT22;29013;49.676;8.606;2023-02-14T21:50:42;3.8;99.9
43414;DHT22;29013;49.676;8.606;2023-02-14T21:56:09;3.9;99.9
43414;DHT22;29013;49.676;8.606;2023-02-14T22:01:34;3.8;99.9
43414;DHT22;29013;49.676;8.606;2023-02-14T22:06:57;3.7;99.9
43414;DHT22;29013;49.676;8.606;2023-02-14T22:12:20;3.6;99.9
43414;DHT22;29013;49.676;8.606;2023-02-14T22:17:43;3.5;99.9
43414;DHT22;29013;49.676;8.606;2023-02-14T22:23:09;3.6;99.9
43414;DHT22;29013;49.676;8.606;2023-02-14T22:28:33;3.6;99.9
43414;DHT22;29013;49.676;8.606;2023-02-14T22:34:02;3.7;99.9
43414;DHT22;29013;49.676;8.606;2023-02-14T22:39:26;3.7;99.9
43414;DHT22;29013;49.676;8.606;2023-02-14T22:44:50;3.6;99.9
43414;DHT22;29013;49.676;8.606;2023-02-14T22:50:14;3.6;99.9
43414;DHT22;29013;49.676;8.606;2023-02-14T22:55:38;3.6;99.9
43414;DHT22;29013;49.676;8.606;2023-02-14T23:02:02;3.6;99.9
43414;DHT22;29013;49.676;8.606;2023-02-14T23:07:18;4.1;99.9
43414;DHT22;29013;49.676;8.606;2023-02-14T23:12:42;4.0;99.9
43414;DHT22;29013;49.676;8.606;2023-02-14T23:18:08;3.8;99.9
43414;DHT22;29013;49.676;8.606;2023-02-14T23:23:30;3.7;99.9
43414;DHT22;29013;49.676;8.606;2023-02-14T23:28:53;3.8;99.9
43414;DHT22;29013;49.676;8.606;2023-02-14T23:34:18;3.7;99.9
43414;DHT22;29013;49.676;8.606;2023-02-14T23:39:40;3.6;99.9
43414;DHT22;29013;49.676;8.606;2023-02-14T23:45:06;3.6;99.9
43414;DHT22;29013;49.676;8.606;2023-02-14T23:50:30;3.7;99.9
43414;DHT22;29013;49.676;8.606;2023-02-14T23:55:58;3.8;99.9
